Armourdale, North Dakota
Current Conditions -  °F | °C
As of 8:55 PM on Wednesday 26 Nov 2014 (Local Time) from K06D Reporting Station
Clear Clear  
Wind Chill: -24°   Ceiling: Unl
Heat Index: -24°   Visibility: 10mi
Dew Point: -28°   Wind: 3mph
Humidity: 70%   Direction: 320°NW
Pressure: 30.43"   Gusts: NA
Location:  48.8584°N, 99.1311°W
Report Text: K06D 270255Z AUTO 32003KT 10SM CLR M24/M28 A3043 RMK AO2
Loading
Personal Weather Stations






























Interactive Weather Map New forecast layout! Learn more

10-Day Weather Forecast

Advertisements
Track Severe Weather on mobile